LBPD Airport Information

Runway Information
Runway 12 Length 8202 ft width 148 ft
Elevation 564 ft Threshold 0 ft Heading 127
Runway 30 Length 8202 ft Width 148 ft
Elevation 597 ft Threshold 0 ft Heading 307
Airport Frequencies
Type TWR Name TWR Frequency 119.6 MHZ
Airport Navaids
Type VOR-DME Name Plovdiv Frequency 114900 KHZ
Airport Weather Information & NOTAM
ADDS - METARS form results

(1045 UTC 23 March 2019)
Data provider http://aviationweather.gov/metar/data/
 
METAR text: LBPD 231030Z AUTO VRB04KT 9999 NCD 18/02 Q1023 NOSIG
Conditions at: LBPD (PLOVDIV , BG) observed 1030 UTC 23 March 2019
Temperature: 18.0°C (64°F)
Dewpoint: 2.0°C (36°F) [RH = 34%]
Pressure (altimeter): 30.21 inches Hg (1023.0 mb)
Winds: variable direction winds at 5 MPH (4 knots; 2.1 m/s)
Visibility: 6 or more miles (10+ km)
Ceiling: at least 12,000 feet AGL
Clouds: sky clear below 12,000 feet AGL
Weather: no significant weather observed at this time

METAR text: LBPD 231000Z AUTO VRB04KT 9999 NCD 17/02 Q1023 NOSIG
Conditions at: LBPD (PLOVDIV , BG) observed 1000 UTC 23 March 2019
Temperature: 17.0°C (63°F)
Dewpoint: 2.0°C (36°F) [RH = 36%]
Pressure (altimeter): 30.21 inches Hg (1023.0 mb)
Winds: variable direction winds at 5 MPH (4 knots; 2.1 m/s)
Visibility: 6 or more miles (10+ km)
Ceiling: at least 12,000 feet AGL
Clouds: sky clear below 12,000 feet AGL
Weather: no significant weather observed at this time

Forecast for: LBPD (PLOVDIV , BG)
Text: TAF LBPD 230500Z 2306/2406 VRB04KT CAVOK
Forecast period: 0600 to 1100 UTC 23 March 2019
Forecast type: FROM: standard forecast or significant change
Winds: variable direction winds at 5 MPH (4 knots; 2.1 m/s)
Visibility: 6 or more miles 10+ km)
Ceiling: unknown
Clouds: missing
Weather: NSW  (no significant weather)
Text: BECMG 2311/2313 09010KT
Forecast period: 1100 to 2100 UTC 23 March 2019
Forecast type: BECOMING: Conditions expected to become as follows by 1300 UTC 23 March 2019
Winds: from the E (90 degrees) at 12 MPH (10 knots; 5.1 m/s)
Visibility: 6 or more miles 10+ km)
Ceiling: unknown
Clouds: missing
Weather: NSW  (no significant weather)
Text: BECMG 2321/2323 VRB04KT
Forecast period: 2100 UTC 23 March 2019 to 0600 UTC 24 March 2019
Forecast type: BECOMING: Conditions expected to become as follows by 2300 UTC 23 March 2019
Winds: variable direction winds at 5 MPH (4 knots; 2.1 m/s)
Visibility: 6 or more miles 10+ km)
Ceiling: unknown
Clouds: missing
Weather: NSW  (no significant weather)